Thunder radar more information blitzortung!


Rain radar more information rain snow radar


altri nostri siti meteo:

PomeziameteoStazione ufficiale di Pomezia

MeteopomeziaSito sulle condizioni meteo



Nessuna attenzione particolare richiesta.    Non ci sono allerte meteo

Report METAR

   
LIMP - Parma
Dati ricevuti: 20-10-2021 19:50
Molto nuvoloso  
Molto nuvoloso  
   Vento: SW 5.6 km/h
Vento: SW 5.6 km/h
Temperatura: 19°C
P.to Rugiada: 11°C
Umidita: 60%
Barometro: 1021 hPa
Nuvole: Molto nuvoloso
Visibilita: 7 km
dettagli cloud: Molto nuvoloso 6000 ft
LIMP 201750Z 23003KT 7000 BKN060 19/11 Q1021
LIPE - Bologna
Dati ricevuti: 20-10-2021 20:50
Parzialmente nuvoloso  
Parzialmente nuvoloso  
   Vento: Sud 16.7 km/h
Vento: Sud 16.7 km/h
Temperatura: 17°C
P.to Rugiada: 9°C
Umidita: 59%
Barometro: 1021 hPa
Nuvole: Parzialmente nuvoloso
Visibilita: oltre 10 km
dettagli cloud: Parzialmente nuvoloso 6000 ft
LIPE 201850Z 19009KT 9999 SCT060 17/09 Q1021
LIPO - Brescia/Montichi
Dati ricevuti: 20-10-2021 20:50
Foschia, Coperto  
Foschia, Coperto  
   Vento: W 11.1 km/h
Vento: W 11.1 km/h
Temperatura: 16°C
P.to Rugiada: 13°C
Umidita: 83%
Barometro: 1021 hPa
Nuvole: Coperto
Visibilita: 5 km
dettagli cloud: Coperto 8100 ft
LIPO 201850Z AUTO 30006KT 4900 HZ OVC081/// 16/13 Q1021
LIPF - Ferrara
Dati ricevuti: 20-10-2021 19:55
Sereno  
Sereno  
   Vento: calma
Vento: calma
Temperatura: 16°C
P.to Rugiada: 14°C
Umidita: 88%
Barometro: 1021 hPa
Visibilita: oltre 10 km
dettagli cloud: Sereno
LIPF 201755Z 00000KT CAVOK 16/14 Q1021
LIPL - Ghedi
Dati ricevuti: 20-10-2021 19:55
Nebbia, Parzialmente nuvoloso  
Nebbia, Parzialmente nuvoloso  
   Vento: NNW 9.3 km/h
Vento: NNW 9.3 km/h
Temperatura: 15°C
P.to Rugiada: 13°C
Umidita: 88%
Barometro: 1021 hPa
Nuvole: Parzialmente nuvoloso
Visibilita: 4 km
dettagli cloud: Poche nuvole 5000 ft,
Parzialmente nuvoloso 7000 ft
LIPL 201755Z 33005KT 4000 BR FEW050 SCT070 15/13 Q1021 RMK BKN VIS MIN 4000 WIND THR31 32005KT WIND THR13 33004KT GRN
LIVC - Monte Cimone
Dati ricevuti: 20-10-2021 20:15
  
  
   Vento: SW 44.4 km/h
Vento: SW 44.4 km/h
Temperatura: 3°C
Temperatura Vento: -4°C
P.to Rugiada: 0°C
Umidita: 81%
Barometro: 1024 hPa
LIVC 201815Z AUTO 22024KT //// 03/M00 Q1024
LIMS - Piacenza
Dati ricevuti: 20-10-2021 19:55
Nebbia, Molto nuvoloso  
Nebbia, Molto nuvoloso  
   Vento: SW 7.4 km/h
Vento: SW 7.4 km/h
Temperatura: 15°C
P.to Rugiada: 15°C
Umidita: 100%
Barometro: 1021 hPa
Nuvole: Molto nuvoloso
Visibilita: 5 km
dettagli cloud: Molto nuvoloso 6000 ft
LIMS 201755Z 22004KT 5000 BR BKN060 15/15 Q1021
LIMT - Passo della Cisa
Dati ricevuti: 23-09-2019 13:55
DATI Obsoleti
Nebbia  
Nebbia  
   Vento: calma
Vento: calma
Temperatura: 10°C
P.to Rugiada: 10°C
Umidita: 100%
Barometro: 1014 hPa
Visibilita: 0 km
dettagli cloud: Coperto
LIMT 231155Z 00000KT 0000 FG VV/// 10/10 Q1014 RMK MON INVIS VAL INVIS VIS MIN 0000
LIPU - Padova
Dati ricevuti: 20-10-2021 08:00
DATI Obsoleti
Nebbia  
Nebbia  
   Vento: Variabile 1.9 km/h
Vento: Variabile 1.9 km/h
Temperatura: 8°C
P.to Rugiada: 8°C
Umidita: 100%
Barometro: 1026 hPa
Visibilita: 0 km
dettagli cloud: Coperto
LIPU 200600Z VRB01KT 0300 FG VV/// 08/08 Q1026

Script sviluppato da  Saratoga-weather.org Adattato per il modello da  Weerstation Leuven

Strumentazione usata:

Stazione meteo
Davis VP2

Programma gestore dati meteo
WVIEW

Server per i dati meteo
Pc-WDS5

Davis VP2

WVIEW

Pc-WDS5